Farmington, Kentucky
Current Conditions -  °F | °C
As of 11:35 PM on Wednesday 26 Nov 2014 (Local Time) from KM25 Reporting Station
Drizzle Drizzle  
Wind Chill: 36°   Ceiling: 800
Heat Index: 36°   Visibility: 5mi
Dew Point: 36°   Wind: 0mph
Humidity: 100%   Direction: NA
Pressure: 30.12"   Gusts: NA
Location:  36.67°N, 88.53°W
Report Text: KM25 270535Z AUTO 00000KT 5SM -DZ BKN008 OVC011 02/02 A3012 RMK AO2
Loading
Personal Weather Stations






























Interactive Weather Map New forecast layout! Learn more

10-Day Weather Forecast

Advertisements
Track Severe Weather on mobile